createdAt,value
2019-04-07T00:00:01.353Z,100374.44
2019-04-07T00:01:02.344Z,100374.10
2019-04-07T00:02:01.607Z,100374.27
2019-04-07T00:03:03.694Z,100373.68
2019-04-07T00:04:02.939Z,100374.02
2019-04-07T00:05:11.062Z,100374.69
2019-04-07T00:06:04.368Z,100374.52
2019-04-07T00:07:05.837Z,100375.23
2019-04-07T00:08:06.772Z,100375.32
2019-04-07T00:09:06.054Z,100375.48
2019-04-07T00:10:06.354Z,100375.66
2019-04-07T00:11:08.372Z,100375.73
2019-04-07T00:12:07.454Z,100376.28
2019-04-07T00:12:16.494Z,100381.09
2019-04-07T00:13:18.414Z,100380.33
2019-04-07T00:14:18.069Z,100380.58
2019-04-07T00:15:18.493Z,100380.41
2019-04-07T00:16:20.191Z,100380.58
2019-04-07T00:17:19.689Z,100380.16
2019-04-07T00:18:21.749Z,100379.99
2019-04-07T00:19:20.886Z,100379.74
2019-04-07T00:20:21.215Z,100379.58
2019-04-07T00:21:22.812Z,100379.58
2019-04-07T00:22:23.558Z,100379.02
2019-04-07T00:23:24.117Z,100378.85
2019-04-07T00:24:24.727Z,100378.35
2019-04-07T00:25:25.225Z,100378.10
2019-04-07T00:26:26.005Z,100377.47
2019-04-07T00:27:25.746Z,100377.64
2019-04-07T00:28:26.250Z,100377.47
2019-04-07T00:29:28.047Z,100377.30
2019-04-07T00:30:29.242Z,100377.39
2019-04-07T00:31:28.069Z,100377.05
2019-04-07T00:32:29.529Z,100376.55
2019-04-07T00:33:30.224Z,100376.70
2019-04-07T00:34:31.101Z,100376.50
2019-04-07T00:35:32.563Z,100376.38
2019-04-07T00:36:31.449Z,100376.45
2019-04-07T00:37:33.666Z,100376.33
2019-04-07T00:38:33.215Z,100376.55
2019-04-07T00:39:33.580Z,100376.84
2019-04-07T00:40:33.907Z,100377.22
2019-04-07T00:41:35.505Z,100377.14
2019-04-07T00:42:35.997Z,100377.22
2019-04-07T00:43:36.628Z,100377.86
2019-04-07T00:44:37.813Z,100377.44
2019-04-07T00:45:37.012Z,100377.31
2019-04-07T00:46:37.648Z,100377.91
2019-04-07T00:47:39.254Z,100378.23
2019-04-07T00:48:39.730Z,100377.77
2019-04-07T00:49:40.208Z,100377.78
2019-04-07T00:50:40.713Z,100377.98
2019-04-07T00:51:42.091Z,100378.16
2019-04-07T00:52:41.124Z,100378.53
2019-04-07T00:53:42.924Z,100378.53
2019-04-07T00:54:43.502Z,100378.41
2019-04-07T00:55:44.047Z,100378.81
2019-04-07T00:56:44.520Z,100378.85
2019-04-07T00:57:45.620Z,100378.98
2019-04-07T00:58:44.790Z,100379.19
2019-04-07T00:59:47.310Z,100379.40
2019-04-07T01:00:46.180Z,100379.10
2019-04-07T01:01:47.635Z,100378.22
2019-04-07T01:02:48.642Z,100378.55
2019-04-07T01:03:48.147Z,100378.38
2019-04-07T01:04:48.767Z,100378.03
2019-04-07T01:05:51.072Z,100377.66
2019-04-07T01:06:50.197Z,100377.45
2019-04-07T01:07:52.166Z,100376.81
2019-04-07T01:08:52.829Z,100377.10
2019-04-07T01:09:53.326Z,100377.65
2019-04-07T01:10:54.022Z,100378.11
2019-04-07T01:11:02.564Z,100389.77
2019-04-07T01:12:04.117Z,100388.88
2019-04-07T01:13:03.786Z,100389.04
2019-04-07T01:14:04.463Z,100388.38
2019-04-07T01:15:06.294Z,100388.03
2019-04-07T01:16:07.011Z,100387.81
2019-04-07T01:17:07.113Z,100387.81
2019-04-07T01:18:07.779Z,100387.23
2019-04-07T01:19:07.925Z,100387.14
2019-04-07T01:20:09.551Z,100387.06
2019-04-07T01:21:10.132Z,100387.61
2019-04-07T01:22:11.131Z,100387.78
2019-04-07T01:23:10.631Z,100387.64
2019-04-07T01:24:11.142Z,100387.56
2019-04-07T01:25:13.017Z,100387.44
2019-04-07T01:26:13.823Z,100387.27
2019-04-07T01:27:13.226Z,100387.89
2019-04-07T01:28:15.028Z,100387.89
2019-04-07T01:29:15.668Z,100387.92
2019-04-07T01:30:15.140Z,100388.61
2019-04-07T01:31:16.660Z,100388.69
2019-04-07T01:32:17.168Z,100389.23
2019-04-07T01:33:17.425Z,100390.33
2019-04-07T01:34:16.797Z,100390.86
2019-04-07T01:35:18.324Z,100391.16
2019-04-07T01:36:19.024Z,100392.42
2019-04-07T01:37:19.743Z,100392.46
2019-04-07T01:38:19.219Z,100393.08
2019-04-07T01:39:20.825Z,100393.70
2019-04-07T01:40:21.491Z,100394.17
2019-04-07T01:41:21.954Z,100395.34
2019-04-07T01:42:22.907Z,100395.47
2019-04-07T01:43:22.694Z,100396.09
2019-04-07T01:44:23.355Z,100396.47
2019-04-07T01:45:23.762Z,100396.59
2019-04-07T01:46:24.227Z,100397.09
2019-04-07T01:47:24.731Z,100397.13
2019-04-07T01:48:26.861Z,100398.17
2019-04-07T01:49:26.048Z,100398.50
2019-04-07T01:50:27.763Z,100398.20
2019-04-07T01:51:28.289Z,100398.36
2019-04-07T01:52:28.986Z,100398.91
2019-04-07T01:53:30.259Z,100399.03
2019-04-07T01:54:29.177Z,100399.27
2019-04-07T01:55:31.065Z,100399.31
2019-04-07T01:56:30.462Z,100399.47
2019-04-07T01:57:31.045Z,100399.38
2019-04-07T01:58:31.679Z,100399.45
2019-04-07T01:59:31.965Z,100399.41
2019-04-07T02:00:33.795Z,100399.11
2019-04-07T02:01:32.896Z,100399.48
2019-04-07T02:02:34.359Z,100399.47
2019-04-07T02:03:35.700Z,100399.09
2019-04-07T02:04:34.740Z,100399.13
2019-04-07T02:05:35.294Z,100399.33
2019-04-07T02:06:36.435Z,100399.37
2019-04-07T02:07:37.434Z,100399.58
2019-04-07T02:08:37.452Z,100399.78
2019-04-07T02:09:37.827Z,100399.77
2019-04-07T02:10:37.763Z,100399.89
2019-04-07T02:11:38.597Z,100399.68
2019-04-07T02:12:38.712Z,100399.83
2019-04-07T02:13:40.453Z,100400.66
2019-04-07T02:14:39.761Z,100400.82
2019-04-07T02:15:41.460Z,100400.52
2019-04-07T02:16:41.125Z,100400.73
2019-04-07T02:17:41.619Z,100400.72
2019-04-07T02:18:42.238Z,100401.14
2019-04-07T02:19:43.733Z,100401.34
2019-04-07T02:20:44.245Z,100402.47
2019-04-07T02:21:44.980Z,100402.80
2019-04-07T02:22:44.462Z,100402.83
2019-04-07T02:22:53.981Z,100404.17
2019-04-07T02:23:54.802Z,100404.17
2019-04-07T02:24:54.591Z,100404.12
2019-04-07T02:25:56.033Z,100404.45
2019-04-07T02:26:56.548Z,100404.74
2019-04-07T02:27:57.047Z,100405.11
2019-04-07T02:28:57.512Z,100405.70
2019-04-07T02:29:58.023Z,100406.08
2019-04-07T02:30:58.966Z,100406.41
2019-04-07T02:31:58.534Z,100406.48
2019-04-07T02:32:58.641Z,100407.02
2019-04-07T02:34:00.292Z,100406.80
2019-04-07T02:35:01.519Z,100406.50
2019-04-07T02:36:14.511Z,100406.20
2019-04-07T02:37:00.835Z,100405.98
2019-04-07T02:38:02.362Z,100406.16
2019-04-07T02:39:02.776Z,100406.19
2019-04-07T02:40:03.508Z,100405.97
2019-04-07T02:41:02.688Z,100405.75
2019-04-07T02:42:04.644Z,100405.89
2019-04-07T02:43:03.724Z,100405.76
2019-04-07T02:44:05.252Z,100405.93
2019-04-07T02:45:05.805Z,100405.38
2019-04-07T02:46:05.826Z,100405.41
2019-04-07T02:47:06.500Z,100405.67
2019-04-07T02:48:07.044Z,100405.45
2019-04-07T02:49:08.190Z,100405.65
2019-04-07T02:50:07.989Z,100404.84
2019-04-07T02:51:09.696Z,100405.02
2019-04-07T02:52:09.186Z,100404.97
2019-04-07T02:53:11.020Z,100405.30
2019-04-07T02:54:10.390Z,100404.62
2019-04-07T02:55:12.022Z,100404.88
2019-04-07T02:56:11.646Z,100405.00
2019-04-07T02:57:13.272Z,100405.09
2019-04-07T02:58:13.667Z,100404.83
2019-04-07T02:59:14.412Z,100405.34
2019-04-07T03:00:14.052Z,100405.59
2019-04-07T03:01:14.425Z,100406.21
2019-04-07T03:02:15.912Z,100406.55
2019-04-07T03:03:17.152Z,100407.00
2019-04-07T03:04:16.091Z,100407.20
2019-04-07T03:05:16.513Z,100407.66
2019-04-07T03:06:35.758Z,100408.20
2019-04-07T03:07:17.723Z,100408.98
2019-04-07T03:08:19.294Z,100409.48
2019-04-07T03:09:20.488Z,100410.10
2019-04-07T03:10:18.866Z,100410.00
2019-04-07T03:11:21.220Z,100411.47
2019-04-07T03:12:21.227Z,100411.78
2019-04-07T03:13:21.210Z,100411.98
2019-04-07T03:14:21.626Z,100413.11
2019-04-07T03:15:22.669Z,100412.89
2019-04-07T03:16:22.435Z,100413.48
2019-04-07T03:17:23.374Z,100413.43
2019-04-07T03:18:25.202Z,100413.94
2019-04-07T03:19:24.019Z,100414.10
2019-04-07T03:20:25.869Z,100414.69
2019-04-07T03:21:26.802Z,100415.03
2019-04-07T03:22:26.188Z,100415.73
2019-04-07T03:23:26.772Z,100416.23
2019-04-07T03:24:28.679Z,100416.27
2019-04-07T03:25:28.125Z,100417.22
2019-04-07T03:26:29.344Z,100417.43
2019-04-07T03:27:29.117Z,100417.80
2019-04-07T03:28:30.696Z,100418.25
2019-04-07T03:29:31.099Z,100418.42
2019-04-07T03:30:32.913Z,100419.05
2019-04-07T03:31:32.338Z,100418.83
2019-04-07T03:32:33.691Z,100419.66
2019-04-07T03:33:35.121Z,100420.28
2019-04-07T03:34:33.811Z,100420.41
2019-04-07T03:35:34.811Z,100420.19
2019-04-07T03:37:01.379Z,100420.80
2019-04-07T03:37:42.802Z,100420.59
2019-04-07T03:38:35.300Z,100421.55
2019-04-07T03:39:35.569Z,100421.33
2019-04-07T03:40:37.271Z,100421.28
2019-04-07T03:41:38.605Z,100421.39
2019-04-07T03:42:38.541Z,100421.65
2019-04-07T03:43:38.256Z,100421.59
2019-04-07T03:44:40.818Z,100421.38
2019-04-07T03:45:39.470Z,100421.08
2019-04-07T03:46:41.409Z,100421.02
2019-04-07T03:47:41.756Z,100421.19
2019-04-07T03:48:41.699Z,100420.97
2019-04-07T03:49:41.983Z,100420.80
2019-04-07T03:49:50.889Z,100415.92
2019-04-07T03:50:51.288Z,100415.70
2019-04-07T03:51:52.837Z,100416.09
2019-04-07T03:52:54.370Z,100416.17
2019-04-07T03:53:53.948Z,100416.34
2019-04-07T03:54:54.587Z,100415.92
2019-04-07T03:55:54.351Z,100416.93
2019-04-07T03:56:56.527Z,100416.80
2019-04-07T03:57:55.698Z,100416.75
2019-04-07T03:58:57.879Z,100416.83
2019-04-07T03:59:57.754Z,100417.53
2019-04-07T04:00:57.191Z,100417.66
2019-04-07T04:01:59.172Z,100418.27
2019-04-07T04:02:59.241Z,100418.69
2019-04-07T04:03:59.307Z,100418.89
2019-04-07T04:05:00.880Z,100419.13
2019-04-07T04:06:00.933Z,100419.30
2019-04-07T04:07:18.023Z,100419.75
2019-04-07T04:08:02.167Z,100419.92
2019-04-07T04:09:02.375Z,100419.86
2019-04-07T04:10:04.151Z,100420.66
2019-04-07T04:11:04.219Z,100420.85
2019-04-07T04:12:05.102Z,100421.47
2019-04-07T04:13:05.311Z,100421.25
2019-04-07T04:14:05.646Z,100421.38
2019-04-07T04:15:07.159Z,100421.88
2019-04-07T04:16:08.030Z,100421.91
2019-04-07T04:17:07.173Z,100422.11
2019-04-07T04:18:08.281Z,100422.48
2019-04-07T04:19:08.727Z,100423.09
2019-04-07T04:20:09.160Z,100423.63
2019-04-07T04:21:09.641Z,100423.80
2019-04-07T04:22:10.156Z,100424.05
2019-04-07T04:23:11.611Z,100423.63
2019-04-07T04:24:10.365Z,100424.05
2019-04-07T04:25:10.913Z,100424.39
2019-04-07T04:26:11.818Z,100424.64
2019-04-07T04:27:13.382Z,100424.67
2019-04-07T04:28:14.326Z,100425.01
2019-04-07T04:29:13.322Z,100426.22
2019-04-07T04:30:14.903Z,100426.67
2019-04-07T04:31:15.529Z,100426.70
2019-04-07T04:32:15.298Z,100427.23
2019-04-07T04:33:15.946Z,100427.61
2019-04-07T04:34:16.039Z,100428.89
2019-04-07T04:35:17.694Z,100429.59
2019-04-07T04:36:18.335Z,100429.88
2019-04-07T04:37:34.352Z,100429.91
2019-04-07T04:38:18.443Z,100430.78
2019-04-07T04:39:21.114Z,100431.20
2019-04-07T04:40:20.686Z,100431.03
2019-04-07T04:41:20.920Z,100432.21
2019-04-07T04:42:20.548Z,100432.83
2019-04-07T04:43:21.024Z,100433.25
2019-04-07T04:44:24.030Z,100433.75
2019-04-07T04:45:22.459Z,100434.56
2019-04-07T04:46:23.897Z,100434.81
2019-04-07T04:47:23.712Z,100435.31
2019-04-07T04:48:25.934Z,100435.56
2019-04-07T04:49:25.278Z,100436.19
2019-04-07T04:50:27.528Z,100436.77
2019-04-07T04:51:26.607Z,100437.22
2019-04-07T04:52:28.566Z,100437.84
2019-04-07T04:53:30.692Z,100438.46
2019-04-07T04:54:29.095Z,100439.16
2019-04-07T04:55:29.751Z,100440.00
2019-04-07T04:56:30.940Z,100440.63
2019-04-07T04:57:31.893Z,100441.33
2019-04-07T04:58:32.252Z,100442.14
2019-04-07T04:59:33.282Z,100442.93
2019-04-07T05:00:34.058Z,100443.50
2019-04-07T05:01:34.406Z,100444.78
2019-04-07T05:02:34.834Z,100445.52
2019-04-07T05:03:36.183Z,100447.23
2019-04-07T05:04:36.122Z,100448.44
2019-04-07T05:05:38.064Z,100449.47
2019-04-07T05:06:37.908Z,100450.09
2019-04-07T05:07:50.759Z,100451.46
2019-04-07T05:08:39.201Z,100452.02
2019-04-07T05:09:46.119Z,100452.81
2019-04-07T05:10:40.570Z,100453.93
2019-04-07T05:11:40.815Z,100454.47
2019-04-07T05:12:42.015Z,100455.50
2019-04-07T05:13:42.177Z,100456.42
2019-04-07T05:14:42.872Z,100457.13
2019-04-07T05:15:43.435Z,100457.91
2019-04-07T05:16:43.741Z,100458.78
2019-04-07T05:16:52.463Z,100469.51
2019-04-07T05:17:53.838Z,100469.26
2019-04-07T05:18:54.106Z,100470.02
2019-04-07T05:19:54.989Z,100470.40
2019-04-07T05:20:55.339Z,100470.31
2019-04-07T05:21:55.891Z,100470.66
2019-04-07T05:22:56.481Z,100471.41
2019-04-07T05:23:58.201Z,100471.58
2019-04-07T05:24:58.771Z,100472.00
2019-04-07T05:25:59.223Z,100471.66
2019-04-07T05:26:58.554Z,100471.58
2019-04-07T05:27:58.966Z,100472.16
2019-04-07T05:29:01.422Z,100472.66
2019-04-07T05:30:00.359Z,100473.09
2019-04-07T05:31:02.404Z,100473.25
2019-04-07T05:32:01.617Z,100473.34
2019-04-07T05:33:03.603Z,100474.20
2019-04-07T05:34:04.297Z,100473.98
2019-04-07T05:35:05.902Z,100473.90
2019-04-07T05:36:04.884Z,100474.34
2019-04-07T05:37:05.516Z,100474.77
2019-04-07T05:38:08.296Z,100475.05
2019-04-07T05:39:06.696Z,100475.05
2019-04-07T05:40:08.283Z,100475.47
2019-04-07T05:41:09.129Z,100476.25
2019-04-07T05:42:09.430Z,100476.67
2019-04-07T05:43:10.700Z,100477.01
2019-04-07T05:44:09.855Z,100477.56
2019-04-07T05:45:11.557Z,100477.90
2019-04-07T05:46:11.100Z,100478.16
2019-04-07T05:47:14.399Z,100478.16
2019-04-07T05:48:12.322Z,100478.45
2019-04-07T05:49:16.258Z,100479.46
2019-04-07T05:50:14.240Z,100479.71
2019-04-07T05:51:14.384Z,100480.27
2019-04-07T05:52:15.166Z,100480.99
2019-04-07T05:53:17.056Z,100482.14
2019-04-07T05:54:19.502Z,100482.86
2019-04-07T05:55:20.655Z,100484.34
2019-04-07T05:56:18.452Z,100485.64
2019-04-07T05:57:18.677Z,100486.80
2019-04-07T05:58:20.234Z,100488.10
2019-04-07T05:59:21.090Z,100489.66
2019-04-07T06:00:20.753Z,100491.45
2019-04-07T06:01:23.409Z,100492.55
2019-04-07T06:02:22.280Z,100493.59
2019-04-07T06:03:22.804Z,100494.48
2019-04-07T06:04:22.832Z,100496.06
2019-04-07T06:05:24.649Z,100497.20
2019-04-07T06:06:25.880Z,100497.98
2019-04-07T06:07:28.793Z,100500.09
2019-04-07T06:08:33.733Z,100500.96
2019-04-07T06:09:26.438Z,100501.79
2019-04-07T06:10:28.959Z,100502.59
2019-04-07T06:11:31.179Z,100503.60
2019-04-07T06:12:28.421Z,100504.17
2019-04-07T06:13:29.145Z,100505.04
2019-04-07T06:14:29.046Z,100506.00
2019-04-07T06:15:31.263Z,100506.58
2019-04-07T06:16:30.496Z,100507.27
2019-04-07T06:17:30.471Z,100507.93
2019-04-07T06:18:34.131Z,100507.96
2019-04-07T06:19:31.599Z,100508.52
2019-04-07T06:20:33.440Z,100508.27
2019-04-07T06:21:32.416Z,100509.02
2019-04-07T06:22:33.834Z,100509.52
2019-04-07T06:23:33.611Z,100509.89
2019-04-07T06:24:36.184Z,100510.45
2019-04-07T06:25:40.906Z,100511.04
2019-04-07T06:26:36.971Z,100511.48
2019-04-07T06:27:36.098Z,100512.18
2019-04-07T06:28:38.117Z,100512.38
2019-04-07T06:29:37.781Z,100512.92
2019-04-07T06:30:37.972Z,100512.84
2019-04-07T06:31:39.075Z,100513.36
2019-04-07T06:32:39.776Z,100513.33
2019-04-07T06:33:40.480Z,100513.05
2019-04-07T06:34:43.123Z,100512.92
2019-04-07T06:35:43.799Z,100512.58
2019-04-07T06:36:41.646Z,100511.97
2019-04-07T06:37:43.206Z,100511.63
2019-04-07T06:38:50.353Z,100511.13
2019-04-07T06:39:44.042Z,100510.64
2019-04-07T06:40:43.776Z,100510.27
2019-04-07T06:40:56.479Z,100506.05
2019-04-07T06:41:53.436Z,100505.63
2019-04-07T06:42:53.441Z,100505.39
2019-04-07T06:44:02.617Z,100505.23
2019-04-07T06:44:55.320Z,100505.22
2019-04-07T06:45:55.360Z,100504.62
2019-04-07T06:46:59.112Z,100504.28
2019-04-07T06:47:56.262Z,100504.02
2019-04-07T06:48:56.586Z,100502.94
2019-04-07T06:49:58.558Z,100502.89
2019-04-07T06:50:59.744Z,100501.87
2019-04-07T06:52:02.951Z,100501.77
2019-04-07T06:52:59.147Z,100501.52
2019-04-07T06:54:01.177Z,100501.37
2019-04-07T06:55:00.542Z,100501.22
2019-04-07T06:56:03.907Z,100501.34
2019-04-07T06:57:05.113Z,100501.08
2019-04-07T06:58:06.093Z,100500.67
2019-04-07T06:59:03.556Z,100500.57
2019-04-07T07:00:03.833Z,100500.36
2019-04-07T07:01:05.832Z,100500.59
2019-04-07T07:02:05.490Z,100500.38
2019-04-07T07:03:06.157Z,100499.94
2019-04-07T07:04:10.867Z,100500.08
2019-04-07T07:05:07.103Z,100500.09
2019-04-07T07:06:08.675Z,100500.12
2019-04-07T07:07:09.838Z,100500.34
2019-04-07T07:08:10.042Z,100500.39
2019-04-07T07:09:10.365Z,100500.27
2019-04-07T07:10:10.393Z,100500.09
2019-04-07T07:11:10.584Z,100500.14
2019-04-07T07:12:19.898Z,100500.25
2019-04-07T07:13:20.698Z,100499.88
2019-04-07T07:14:14.064Z,100499.48
2019-04-07T07:15:12.845Z,100499.70
2019-04-07T07:16:15.722Z,100499.62
2019-04-07T07:17:18.041Z,100499.37
2019-04-07T07:18:15.434Z,100499.07
2019-04-07T07:19:15.300Z,100498.72
2019-04-07T07:20:16.844Z,100498.80
2019-04-07T07:21:17.781Z,100498.27
2019-04-07T07:22:18.679Z,100498.57
2019-04-07T07:23:19.162Z,100498.52
2019-04-07T07:24:24.968Z,100498.14
2019-04-07T07:25:20.385Z,100498.19
2019-04-07T07:26:21.762Z,100498.41
2019-04-07T07:27:20.776Z,100497.87
2019-04-07T07:28:21.459Z,100497.27
2019-04-07T07:29:23.783Z,100496.27
2019-04-07T07:30:22.390Z,100496.00
2019-04-07T07:31:25.486Z,100495.58
2019-04-07T07:32:23.608Z,100495.69
2019-04-07T07:33:25.159Z,100495.30
2019-04-07T07:34:25.942Z,100494.87
2019-04-07T07:35:27.211Z,100494.69
2019-04-07T07:36:26.402Z,100494.45
2019-04-07T07:37:28.002Z,100494.91
2019-04-07T07:38:31.125Z,100494.80
2019-04-07T07:39:28.402Z,100494.20
2019-04-07T07:40:30.020Z,100494.09
2019-04-07T07:41:29.807Z,100493.98
2019-04-07T07:42:32.127Z,100493.38
2019-04-07T07:43:31.902Z,100493.09
2019-04-07T07:44:35.904Z,100492.39
2019-04-07T07:45:32.997Z,100492.42
2019-04-07T07:46:33.301Z,100491.92
2019-04-07T07:47:33.774Z,100491.91
2019-04-07T07:48:34.243Z,100491.75
2019-04-07T07:49:39.902Z,100491.77
2019-04-07T07:50:38.079Z,100491.48
2019-04-07T07:51:38.425Z,100491.72
2019-04-07T07:52:36.438Z,100491.34
2019-04-07T07:53:38.345Z,100491.23
2019-04-07T07:54:37.722Z,100491.70
2019-04-07T07:55:40.186Z,100491.17
2019-04-07T07:56:42.211Z,100491.41
2019-04-07T07:57:40.466Z,100491.27
2019-04-07T07:58:40.704Z,100491.11
2019-04-07T07:59:42.060Z,100491.53
2019-04-07T08:00:43.365Z,100491.31
2019-04-07T08:01:46.189Z,100491.23
2019-04-07T08:02:44.291Z,100491.47
2019-04-07T08:03:44.413Z,100491.48
2019-04-07T08:04:44.983Z,100491.63
2019-04-07T08:05:46.614Z,100491.29
2019-04-07T08:06:46.137Z,100491.66
2019-04-07T08:07:48.981Z,100491.47
2019-04-07T08:08:48.441Z,100491.56
2019-04-07T08:09:48.130Z,100491.94
2019-04-07T08:10:50.685Z,100491.62
2019-04-07T08:11:50.168Z,100491.68
2019-04-07T08:12:50.825Z,100491.60
2019-04-07T08:13:51.290Z,100491.21
2019-04-07T08:14:55.230Z,100491.14
2019-04-07T08:15:51.938Z,100491.09
2019-04-07T08:16:54.395Z,100490.93
2019-04-07T08:17:53.458Z,100490.61
2019-04-07T08:18:54.003Z,100490.38
2019-04-07T08:19:55.706Z,100490.20
2019-04-07T08:20:55.130Z,100490.14
2019-04-07T08:21:05.577Z,100488.86
2019-04-07T08:22:07.704Z,100488.79
2019-04-07T08:23:06.876Z,100488.69
2019-04-07T08:24:08.057Z,100487.98
2019-04-07T08:25:08.700Z,100487.46
2019-04-07T08:26:09.427Z,100487.38
2019-04-07T08:27:09.231Z,100487.08
2019-04-07T08:28:10.948Z,100486.64
2019-04-07T08:29:12.958Z,100486.30
2019-04-07T08:30:13.699Z,100485.98
2019-04-07T08:31:12.224Z,100485.82
2019-04-07T08:32:14.031Z,100485.56
2019-04-07T08:33:14.738Z,100485.45
2019-04-07T08:34:14.338Z,100486.11
2019-04-07T08:35:15.375Z,100485.92
2019-04-07T08:36:15.324Z,100485.66
2019-04-07T08:37:16.889Z,100486.19
2019-04-07T08:38:19.875Z,100486.40
2019-04-07T08:39:22.715Z,100486.24
2019-04-07T08:40:18.746Z,100486.22
2019-04-07T08:41:19.002Z,100486.42
2019-04-07T08:42:19.827Z,100486.44
2019-04-07T08:43:22.549Z,100486.41
2019-04-07T08:44:20.532Z,100486.41
2019-04-07T08:45:21.297Z,100486.56
2019-04-07T08:46:22.983Z,100486.91
2019-04-07T08:47:23.366Z,100486.90
2019-04-07T08:48:23.137Z,100486.80
2019-04-07T08:49:25.612Z,100487.34
2019-04-07T08:50:27.651Z,100486.80
2019-04-07T08:51:29.345Z,100486.95
2019-04-07T08:52:26.033Z,100487.15
2019-04-07T08:53:26.197Z,100486.98
2019-04-07T08:54:28.558Z,100487.07
2019-04-07T08:55:28.244Z,100486.97
2019-04-07T08:56:29.008Z,100486.79
2019-04-07T08:57:30.556Z,100485.95
2019-04-07T08:58:33.166Z,100485.48
2019-04-07T08:59:30.332Z,100484.73
2019-04-07T09:00:31.612Z,100484.29
2019-04-07T09:01:31.741Z,100483.61
2019-04-07T09:02:32.260Z,100483.09
2019-04-07T09:03:33.174Z,100482.69
2019-04-07T09:04:33.239Z,100482.49
2019-04-07T09:05:35.450Z,100482.39
2019-04-07T09:06:34.537Z,100482.41
2019-04-07T09:07:35.073Z,100483.08
2019-04-07T09:08:37.934Z,100482.68
2019-04-07T09:09:40.373Z,100482.45
2019-04-07T09:10:37.220Z,100482.31
2019-04-07T09:11:40.351Z,100482.84
2019-04-07T09:12:39.223Z,100482.81
2019-04-07T09:13:39.571Z,100483.28
2019-04-07T09:14:40.873Z,100483.59
2019-04-07T09:15:43.580Z,100483.75
2019-04-07T09:16:41.663Z,100484.22
2019-04-07T09:17:45.780Z,100484.16
2019-04-07T09:18:51.678Z,100484.49
2019-04-07T09:19:44.199Z,100485.31
2019-04-07T09:20:47.045Z,100485.51
2019-04-07T09:21:47.553Z,100485.87
2019-04-07T09:22:44.820Z,100485.64
2019-04-07T09:23:46.821Z,100485.66
2019-04-07T09:24:46.161Z,100485.57
2019-04-07T09:25:46.803Z,100485.53
2019-04-07T09:26:47.310Z,100484.88
2019-04-07T09:27:50.226Z,100484.56
2019-04-07T09:28:48.724Z,100484.80
2019-04-07T09:29:49.166Z,100484.56
2019-04-07T09:30:50.791Z,100484.27
2019-04-07T09:31:51.858Z,100483.58
2019-04-07T09:32:51.188Z,100482.94
2019-04-07T09:33:52.860Z,100483.77
2019-04-07T09:34:53.963Z,100484.27
2019-04-07T09:35:56.653Z,100484.37
2019-04-07T09:36:53.508Z,100484.29
2019-04-07T09:37:55.894Z,100484.26
2019-04-07T09:39:00.189Z,100485.03
2019-04-07T09:39:59.711Z,100484.80
2019-04-07T09:40:56.004Z,100485.05
2019-04-07T09:41:57.219Z,100484.95
2019-04-07T09:42:59.999Z,100485.16
2019-04-07T09:44:01.157Z,100485.32
2019-04-07T09:44:58.650Z,100485.16
2019-04-07T09:46:00.329Z,100484.99
2019-04-07T09:47:02.066Z,100484.75
2019-04-07T09:48:02.165Z,100484.81
2019-04-07T09:49:02.022Z,100485.16
2019-04-07T09:50:02.870Z,100485.09
2019-04-07T09:51:06.893Z,100485.11
2019-04-07T09:52:03.477Z,100485.55
2019-04-07T09:53:05.048Z,100485.71
2019-04-07T09:54:05.618Z,100485.70
2019-04-07T09:55:07.612Z,100486.13
2019-04-07T09:56:08.826Z,100486.27
2019-04-07T09:57:07.398Z,100485.97
2019-04-07T09:58:09.334Z,100486.13
2019-04-07T09:59:07.879Z,100485.80
2019-04-07T10:00:08.731Z,100485.50
2019-04-07T10:01:09.127Z,100485.77
2019-04-07T10:02:10.374Z,100486.20
2019-04-07T10:03:13.672Z,100486.64
2019-04-07T10:04:12.138Z,100486.88
2019-04-07T10:05:12.233Z,100486.64
2019-04-07T10:06:13.289Z,100486.36
2019-04-07T10:07:15.986Z,100486.19
2019-04-07T10:08:13.885Z,100485.95
2019-04-07T10:09:14.543Z,100486.02
2019-04-07T10:10:14.960Z,100485.72
2019-04-07T10:10:23.791Z,100483.35
2019-04-07T10:11:23.820Z,100483.45
2019-04-07T10:12:25.187Z,100483.97
2019-04-07T10:13:25.435Z,100484.66
2019-04-07T10:14:26.157Z,100484.54
2019-04-07T10:15:27.902Z,100484.66
2019-04-07T10:16:28.484Z,100485.42
2019-04-07T10:17:28.965Z,100485.48
2019-04-07T10:18:29.935Z,100486.17
2019-04-07T10:19:30.079Z,100485.80
2019-04-07T10:20:30.333Z,100485.83
2019-04-07T10:21:32.426Z,100485.44
2019-04-07T10:22:32.072Z,100485.89
2019-04-07T10:23:32.448Z,100485.48
2019-04-07T10:24:32.805Z,100485.53
2019-04-07T10:25:34.431Z,100485.80
2019-04-07T10:26:33.998Z,100486.16
2019-04-07T10:27:35.813Z,100486.03
2019-04-07T10:28:36.653Z,100486.35
2019-04-07T10:29:36.069Z,100487.05
2019-04-07T10:30:37.019Z,100486.89
2019-04-07T10:31:36.750Z,100487.16
2019-04-07T10:32:38.492Z,100487.45
2019-04-07T10:33:38.260Z,100486.78
2019-04-07T10:34:40.746Z,100486.58
2019-04-07T10:35:39.864Z,100486.45
2019-04-07T10:36:42.344Z,100485.84
2019-04-07T10:37:41.536Z,100486.01
2019-04-07T10:38:42.542Z,100486.66
2019-04-07T10:39:42.332Z,100486.66
2019-04-07T10:40:43.954Z,100487.41
2019-04-07T10:41:45.235Z,100487.52
2019-04-07T10:42:44.803Z,100487.36
2019-04-07T10:43:45.287Z,100487.62
2019-04-07T10:44:45.247Z,100487.70
2019-04-07T10:45:46.618Z,100488.10
2019-04-07T10:46:47.881Z,100488.30
2019-04-07T10:47:47.335Z,100488.12
2019-04-07T10:48:48.747Z,100487.86
2019-04-07T10:49:57.915Z,100488.27
2019-04-07T10:50:49.244Z,100488.25
2019-04-07T10:51:49.122Z,100488.63
2019-04-07T10:52:51.420Z,100489.13
2019-04-07T10:53:51.089Z,100488.45
2019-04-07T10:54:50.588Z,100488.70
2019-04-07T10:55:52.153Z,100488.16
2019-04-07T10:56:51.861Z,100487.84
2019-04-07T10:57:52.472Z,100487.25
2019-04-07T10:58:53.925Z,100487.25
2019-04-07T10:59:53.892Z,100486.72
2019-04-07T11:00:55.679Z,100486.61
2019-04-07T11:01:56.708Z,100485.69
2019-04-07T11:02:57.205Z,100485.33
2019-04-07T11:03:57.659Z,100484.59
2019-04-07T11:04:57.802Z,100484.25
2019-04-07T11:05:59.414Z,100483.47
2019-04-07T11:06:59.034Z,100482.88
2019-04-07T11:07:59.076Z,100482.11
2019-04-07T11:09:00.867Z,100481.52
2019-04-07T11:10:01.569Z,100480.86
2019-04-07T11:11:02.352Z,100480.06
2019-04-07T11:12:03.263Z,100479.41
2019-04-07T11:13:03.118Z,100478.80
2019-04-07T11:14:03.168Z,100477.52
2019-04-07T11:15:04.671Z,100477.02
2019-04-07T11:16:04.947Z,100476.59
2019-04-07T11:17:04.855Z,100475.25
2019-04-07T11:18:05.347Z,100474.13
2019-04-07T11:19:06.914Z,100473.44
2019-04-07T11:20:08.148Z,100472.40
2019-04-07T11:21:07.203Z,100471.56
2019-04-07T11:22:08.771Z,100470.80
2019-04-07T11:23:09.754Z,100470.53
2019-04-07T11:24:09.002Z,100470.00